sensor_id;sensor_type;location;lat;lon;timestamp;pressure;altitude;pressure_sealevel;temperature;humidity
39223;BME280;24936;46.328;11.026;2023-02-12T00:00:37;95829.31;;;-2.17;66.86
39223;BME280;24936;46.328;11.026;2023-02-12T00:03:03;95829.34;;;-2.18;66.97
39223;BME280;24936;46.328;11.026;2023-02-12T00:05:28;95828.31;;;-1.67;64.41
39223;BME280;24936;46.328;11.026;2023-02-12T00:07:54;95826.78;;;-0.99;61.25
39223;BME280;24936;46.328;11.026;2023-02-12T00:10:20;95832.72;;;-1.31;63.38
39223;BME280;24936;46.328;11.026;2023-02-12T00:12:45;95832.50;;;-1.61;64.61
39223;BME280;24936;46.328;11.026;2023-02-12T00:15:11;95834.81;;;-1.91;66.69
39223;BME280;24936;46.328;11.026;2023-02-12T00:17:36;95837.94;;;-2.18;67.80
39223;BME280;24936;46.328;11.026;2023-02-12T00:20:02;95841.56;;;-2.28;68.59
39223;BME280;24936;46.328;11.026;2023-02-12T00:22:28;95826.19;;;-1.89;66.40
39223;BME280;24936;46.328;11.026;2023-02-12T00:24:54;95829.81;;;-1.99;66.87
39223;BME280;24936;46.328;11.026;2023-02-12T00:27:20;95824.06;;;-2.12;67.09
39223;BME280;24936;46.328;11.026;2023-02-12T00:29:45;95810.38;;;-1.34;63.54
39223;BME280;24936;46.328;11.026;2023-02-12T00:32:11;95823.53;;;-1.86;66.41
39223;BME280;24936;46.328;11.026;2023-02-12T00:34:38;95817.53;;;-2.30;68.78
39223;BME280;24936;46.328;11.026;2023-02-12T00:37:04;95823.78;;;-2.43;69.65
39223;BME280;24936;46.328;11.026;2023-02-12T00:39:29;95818.78;;;-2.51;70.00
39223;BME280;24936;46.328;11.026;2023-02-12T00:41:55;95825.22;;;-2.75;70.69
39223;BME280;24936;46.328;11.026;2023-02-12T00:44:20;95824.91;;;-2.58;69.64
39223;BME280;24936;46.328;11.026;2023-02-12T00:46:45;95821.19;;;-2.42;70.04
39223;BME280;24936;46.328;11.026;2023-02-12T00:49:11;95825.22;;;-2.75;71.77
39223;BME280;24936;46.328;11.026;2023-02-12T00:51:36;95826.47;;;-3.00;73.40
39223;BME280;24936;46.328;11.026;2023-02-12T00:54:03;95820.94;;;-2.78;72.38
39223;BME280;24936;46.328;11.026;2023-02-12T00:56:28;95815.66;;;-2.69;71.40
39223;BME280;24936;46.328;11.026;2023-02-12T00:58:54;95813.78;;;-2.59;71.25
39223;BME280;24936;46.328;11.026;2023-02-12T01:01:19;95824.47;;;-2.34;70.11
39223;BME280;24936;46.328;11.026;2023-02-12T01:03:44;95819.63;;;-2.51;70.49
39223;BME280;24936;46.328;11.026;2023-02-12T01:06:10;95815.53;;;-2.63;72.08
39223;BME280;24936;46.328;11.026;2023-02-12T01:08:35;95819.06;;;-2.67;72.01
39223;BME280;24936;46.328;11.026;2023-02-12T01:11:02;95818.44;;;-2.83;72.81
39223;BME280;24936;46.328;11.026;2023-02-12T01:13:32;95822.09;;;-2.44;71.24
39223;BME280;24936;46.328;11.026;2023-02-12T01:16:27;95820.41;;;-2.47;71.72
39223;BME280;24936;46.328;11.026;2023-02-12T01:18:54;95832.00;;;-2.71;72.82
39223;BME280;24936;46.328;11.026;2023-02-12T01:21:21;95826.31;;;-2.40;71.35
39223;BME280;24936;46.328;11.026;2023-02-12T01:23:47;95826.16;;;-2.31;71.28
39223;BME280;24936;46.328;11.026;2023-02-12T01:26:13;95825.47;;;-1.97;69.79
39223;BME280;24936;46.328;11.026;2023-02-12T01:28:41;95820.69;;;-2.16;71.35
39223;BME280;24936;46.328;11.026;2023-02-12T01:31:12;95811.47;;;-2.27;72.33
39223;BME280;24936;46.328;11.026;2023-02-12T01:33:38;95809.72;;;-2.25;72.55
39223;BME280;24936;46.328;11.026;2023-02-12T01:36:04;95802.13;;;-2.35;72.81
39223;BME280;24936;46.328;11.026;2023-02-12T01:38:29;95804.78;;;-2.39;73.67
39223;BME280;24936;46.328;11.026;2023-02-12T01:41:09;95806.50;;;-2.38;74.19
39223;BME280;24936;46.328;11.026;2023-02-12T01:43:36;95799.81;;;-2.50;74.23
39223;BME280;24936;46.328;11.026;2023-02-12T01:46:02;95805.16;;;-2.58;73.95
39223;BME280;24936;46.328;11.026;2023-02-12T01:48:32;95798.16;;;-2.53;73.66
39223;BME280;24936;46.328;11.026;2023-02-12T01:50:58;95788.91;;;-2.18;71.63
39223;BME280;24936;46.328;11.026;2023-02-12T01:53:30;95784.34;;;-2.03;71.07
39223;BME280;24936;46.328;11.026;2023-02-12T01:55:58;95788.47;;;-1.55;69.25
39223;BME280;24936;46.328;11.026;2023-02-12T01:58:29;95779.00;;;-1.18;66.93
39223;BME280;24936;46.328;11.026;2023-02-12T02:00:56;95773.78;;;-0.81;64.79
39223;BME280;24936;46.328;11.026;2023-02-12T02:03:23;95776.56;;;-0.88;65.80
39223;BME280;24936;46.328;11.026;2023-02-12T02:05:55;95773.63;;;-1.09;67.26
39223;BME280;24936;46.328;11.026;2023-02-12T02:08:21;95767.06;;;-1.23;68.31
39223;BME280;24936;46.328;11.026;2023-02-12T02:10:47;95768.75;;;-1.21;68.13
39223;BME280;24936;46.328;11.026;2023-02-12T02:13:12;95764.50;;;-1.24;68.81
39223;BME280;24936;46.328;11.026;2023-02-12T02:15:59;95761.31;;;-1.34;69.14
39223;BME280;24936;46.328;11.026;2023-02-12T02:18:42;95752.75;;;-1.38;69.41
39223;BME280;24936;46.328;11.026;2023-02-12T02:21:32;95762.97;;;-0.97;67.08
39223;BME280;24936;46.328;11.026;2023-02-12T02:32:15;95741.50;;;-0.66;65.32
39223;BME280;24936;46.328;11.026;2023-02-12T02:34:59;95751.09;;;-1.04;67.69
39223;BME280;24936;46.328;11.026;2023-02-12T02:38:21;95757.56;;;-1.22;68.35
39223;BME280;24936;46.328;11.026;2023-02-12T02:40:48;95755.44;;;-1.42;69.16
39223;BME280;24936;46.328;11.026;2023-02-12T02:43:24;95777.81;;;-1.80;70.78
39223;BME280;24936;46.328;11.026;2023-02-12T02:46:00;95774.13;;;-2.09;71.87
39223;BME280;24936;46.328;11.026;2023-02-12T02:48:35;95776.66;;;-2.08;71.33
39223;BME280;24936;46.328;11.026;2023-02-12T02:51:11;95771.22;;;-1.55;68.82
39223;BME280;24936;46.328;11.026;2023-02-12T02:53:42;95773.63;;;-1.09;66.95
39223;BME280;24936;46.328;11.026;2023-02-12T02:56:16;95770.44;;;-0.84;65.81
39223;BME280;24936;46.328;11.026;2023-02-12T02:58:50;95766.00;;;-0.79;65.31
39223;BME280;24936;46.328;11.026;2023-02-12T03:01:21;95760.34;;;-0.94;65.87
39223;BME280;24936;46.328;11.026;2023-02-12T03:04:09;95773.09;;;-0.87;66.27
39223;BME280;24936;46.328;11.026;2023-02-12T03:06:45;95773.88;;;-0.84;65.81
39223;BME280;24936;46.328;11.026;2023-02-12T03:09:33;95764.88;;;-0.69;65.25
39223;BME280;24936;46.328;11.026;2023-02-12T03:12:07;95773.78;;;-0.81;65.33
39223;BME280;24936;46.328;11.026;2023-02-12T03:14:47;95778.22;;;-1.20;67.36
39223;BME280;24936;46.328;11.026;2023-02-12T03:17:21;95774.00;;;-1.25;67.50
39223;BME280;24936;46.328;11.026;2023-02-12T03:19:56;95775.91;;;-1.33;67.54
39223;BME280;24936;46.328;11.026;2023-02-12T03:22:32;95778.88;;;-1.50;68.69
39223;BME280;24936;46.328;11.026;2023-02-12T03:25:24;95774.72;;;-0.83;66.45
39223;BME280;24936;46.328;11.026;2023-02-12T03:28:15;95781.44;;;-1.48;68.51
39223;BME280;24936;46.328;11.026;2023-02-12T03:30:54;95789.25;;;-1.92;70.16
39223;BME280;24936;46.328;11.026;2023-02-12T03:35:58;95787.72;;;-2.01;71.17
39223;BME280;24936;46.328;11.026;2023-02-12T03:38:36;95779.44;;;-2.17;71.66
39223;BME280;24936;46.328;11.026;2023-02-12T03:41:08;95773.66;;;-2.28;71.91
39223;BME280;24936;46.328;11.026;2023-02-12T03:44:01;95785.00;;;-2.37;72.43
39223;BME280;24936;46.328;11.026;2023-02-12T03:46:44;95789.31;;;-2.38;72.68
39223;BME280;24936;46.328;11.026;2023-02-12T03:56:24;95764.59;;;-0.26;63.59
39223;BME280;24936;46.328;11.026;2023-02-12T03:58:51;95771.50;;;-0.91;65.97
39223;BME280;24936;46.328;11.026;2023-02-12T04:01:17;95777.00;;;-1.43;67.99
39223;BME280;24936;46.328;11.026;2023-02-12T04:03:42;95767.19;;;-1.66;68.94
39223;BME280;24936;46.328;11.026;2023-02-12T04:06:20;95773.00;;;-1.96;70.15
39223;BME280;24936;46.328;11.026;2023-02-12T04:08:46;95767.72;;;-2.32;72.03
39223;BME280;24936;46.328;11.026;2023-02-12T04:16:34;95774.44;;;-2.72;74.10
39223;BME280;24936;46.328;11.026;2023-02-12T04:19:03;95777.03;;;-2.72;74.32
39223;BME280;24936;46.328;11.026;2023-02-12T04:24:48;95778.09;;;-2.37;73.24
39223;BME280;24936;46.328;11.026;2023-02-12T04:27:25;95774.13;;;-2.53;73.69
39223;BME280;24936;46.328;11.026;2023-02-12T04:29:58;95777.59;;;-2.56;74.11
39223;BME280;24936;46.328;11.026;2023-02-12T04:32:33;95776.53;;;-2.44;73.74
39223;BME280;24936;46.328;11.026;2023-02-12T04:35:14;95779.59;;;-2.25;73.06
39223;BME280;24936;46.328;11.026;2023-02-12T04:37:47;95774.19;;;-2.56;74.14
39223;BME280;24936;46.328;11.026;2023-02-12T04:40:19;95774.44;;;-2.72;74.66
39223;BME280;24936;46.328;11.026;2023-02-12T04:42:47;95775.47;;;-2.79;75.06
39223;BME280;24936;46.328;11.026;2023-02-12T04:45:17;95775.69;;;-2.93;75.68
39223;BME280;24936;46.328;11.026;2023-02-12T04:47:45;95775.50;;;-2.84;75.50
39223;BME280;24936;46.328;11.026;2023-02-12T04:50:10;95778.25;;;-2.93;75.30
39223;BME280;24936;46.328;11.026;2023-02-12T04:52:36;95777.56;;;-3.01;76.42
39223;BME280;24936;46.328;11.026;2023-02-12T04:55:01;95781.66;;;-2.91;75.85
39223;BME280;24936;46.328;11.026;2023-02-12T04:57:27;95788.78;;;-2.57;74.72
39223;BME280;24936;46.328;11.026;2023-02-12T04:59:52;95786.50;;;-2.27;73.29
39223;BME280;24936;46.328;11.026;2023-02-12T05:02:18;95787.19;;;-2.17;73.10
39223;BME280;24936;46.328;11.026;2023-02-12T05:04:43;95793.13;;;-2.59;73.84
39223;BME280;24936;46.328;11.026;2023-02-12T05:07:10;95794.34;;;-2.79;74.90
39223;BME280;24936;46.328;11.026;2023-02-12T05:09:35;95794.72;;;-3.02;75.65
39223;BME280;24936;46.328;11.026;2023-02-12T05:12:00;95796.59;;;-3.10;76.53
39223;BME280;24936;46.328;11.026;2023-02-12T05:14:26;95790.03;;;-3.31;77.24
39223;BME280;24936;46.328;11.026;2023-02-12T05:16:51;95791.78;;;-3.33;77.73
39223;BME280;24936;46.328;11.026;2023-02-12T05:19:16;95790.75;;;-2.71;75.70
39223;BME280;24936;46.328;11.026;2023-02-12T05:21:42;95798.16;;;-3.01;76.12
39223;BME280;24936;46.328;11.026;2023-02-12T05:24:07;95800.19;;;-3.22;76.98
39223;BME280;24936;46.328;11.026;2023-02-12T05:26:33;95804.44;;;-3.19;77.27
39223;BME280;24936;46.328;11.026;2023-02-12T05:28:59;95809.47;;;-3.10;77.10
39223;BME280;24936;46.328;11.026;2023-02-12T05:31:25;95810.78;;;-2.86;76.13
39223;BME280;24936;46.328;11.026;2023-02-12T05:33:51;95815.47;;;-3.10;76.43
39223;BME280;24936;46.328;11.026;2023-02-12T05:36:19;95817.69;;;-3.44;77.44
39223;BME280;24936;46.328;11.026;2023-02-12T05:38:45;95815.31;;;-3.00;77.16
39223;BME280;24936;46.328;11.026;2023-02-12T05:41:16;95815.06;;;-2.36;74.29
39223;BME280;24936;46.328;11.026;2023-02-12T05:43:42;95811.00;;;-2.50;74.63
39223;BME280;24936;46.328;11.026;2023-02-12T05:46:08;95812.53;;;-2.39;74.10
39223;BME280;24936;46.328;11.026;2023-02-12T05:48:34;95812.38;;;-2.79;75.18
39223;BME280;24936;46.328;11.026;2023-02-12T05:51:01;95813.28;;;-2.83;75.46
39223;BME280;24936;46.328;11.026;2023-02-12T05:53:27;95822.00;;;-2.40;74.28
39223;BME280;24936;46.328;11.026;2023-02-12T05:55:52;95835.19;;;-2.08;72.61
39223;BME280;24936;46.328;11.026;2023-02-12T05:58:18;95833.25;;;-2.44;73.94
39223;BME280;24936;46.328;11.026;2023-02-12T06:00:43;95831.47;;;-2.40;73.23
39223;BME280;24936;46.328;11.026;2023-02-12T06:03:08;95837.63;;;-2.48;73.97
39223;BME280;24936;46.328;11.026;2023-02-12T06:05:34;95820.28;;;-2.88;75.46
39223;BME280;24936;46.328;11.026;2023-02-12T06:07:59;95825.00;;;-3.16;77.11
39223;BME280;24936;46.328;11.026;2023-02-12T06:10:24;95817.94;;;-3.03;76.90
39223;BME280;24936;46.328;11.026;2023-02-12T06:12:54;95821.00;;;-1.87;73.25
39223;BME280;24936;46.328;11.026;2023-02-12T06:15:19;95815.25;;;-2.46;74.20
39223;BME280;24936;46.328;11.026;2023-02-12T06:17:45;95821.88;;;-2.34;73.98
39223;BME280;24936;46.328;11.026;2023-02-12T06:20:10;95815.75;;;-2.28;73.69
39223;BME280;24936;46.328;11.026;2023-02-12T06:22:36;95821.09;;;-1.92;72.84
39223;BME280;24936;46.328;11.026;2023-02-12T06:25:03;95818.56;;;-2.39;73.69
39223;BME280;24936;46.328;11.026;2023-02-12T06:27:28;95822.44;;;-2.63;74.87
39223;BME280;24936;46.328;11.026;2023-02-12T06:29:54;95827.22;;;-2.93;75.92
39223;BME280;24936;46.328;11.026;2023-02-12T06:32:19;95813.59;;;-2.50;75.22
39223;BME280;24936;46.328;11.026;2023-02-12T06:34:44;95824.56;;;-2.38;75.05
39223;BME280;24936;46.328;11.026;2023-02-12T06:37:10;95826.91;;;-2.26;74.56
39223;BME280;24936;46.328;11.026;2023-02-12T06:39:37;95822.84;;;-1.94;73.21
39223;BME280;24936;46.328;11.026;2023-02-12T06:42:02;95817.00;;;-2.02;72.92
39223;BME280;24936;46.328;11.026;2023-02-12T06:44:28;95829.94;;;-2.51;74.94
39223;BME280;24936;46.328;11.026;2023-02-12T06:46:53;95831.66;;;-2.50;75.61
39223;BME280;24936;46.328;11.026;2023-02-12T06:49:18;95836.34;;;-2.25;74.57
39223;BME280;24936;46.328;11.026;2023-02-12T06:51:44;95831.19;;;-2.25;74.31
39223;BME280;24936;46.328;11.026;2023-02-12T06:54:13;95852.97;;;-2.40;75.49
39223;BME280;24936;46.328;11.026;2023-02-12T06:56:39;95859.88;;;-2.42;76.13
39223;BME280;24936;46.328;11.026;2023-02-12T06:59:04;95859.16;;;-2.03;74.45
39223;BME280;24936;46.328;11.026;2023-02-12T07:01:30;95854.16;;;-2.12;74.97
39223;BME280;24936;46.328;11.026;2023-02-12T07:03:57;95861.84;;;-2.09;74.63
39223;BME280;24936;46.328;11.026;2023-02-12T07:06:24;95863.47;;;-2.04;74.07
39223;BME280;24936;46.328;11.026;2023-02-12T07:08:50;95867.03;;;-1.67;72.92
39223;BME280;24936;46.328;11.026;2023-02-12T07:11:16;95866.22;;;-1.69;72.83
39223;BME280;24936;46.328;11.026;2023-02-12T07:13:43;95865.19;;;-1.60;73.01
39223;BME280;24936;46.328;11.026;2023-02-12T07:16:09;95855.09;;;-1.32;72.05
39223;BME280;24936;46.328;11.026;2023-02-12T07:18:35;95856.00;;;-1.33;72.68
39223;BME280;24936;46.328;11.026;2023-02-12T07:21:02;95853.75;;;-1.48;73.62
39223;BME280;24936;46.328;11.026;2023-02-12T07:23:27;95866.78;;;-1.55;74.79
39223;BME280;24936;46.328;11.026;2023-02-12T07:26:05;95865.53;;;-1.35;73.63
39223;BME280;24936;46.328;11.026;2023-02-12T07:28:31;95860.56;;;-1.06;72.20
39223;BME280;24936;46.328;11.026;2023-02-12T07:31:15;95864.09;;;-1.09;72.84
39223;BME280;24936;46.328;11.026;2023-02-12T07:33:41;95862.44;;;-1.12;73.24
39223;BME280;24936;46.328;11.026;2023-02-12T07:36:27;95867.75;;;-0.47;70.17
39223;BME280;24936;46.328;11.026;2023-02-12T07:38:54;95869.97;;;-0.32;69.73
39223;BME280;24936;46.328;11.026;2023-02-12T07:41:28;95866.38;;;-0.60;71.10
39223;BME280;24936;46.328;11.026;2023-02-12T07:43:59;95878.94;;;-0.81;71.80
39223;BME280;24936;46.328;11.026;2023-02-12T07:46:35;95866.09;;;-0.84;72.07
39223;BME280;24936;46.328;11.026;2023-02-12T07:49:03;95872.53;;;-0.30;70.15
39223;BME280;24936;46.328;11.026;2023-02-12T07:51:30;95865.31;;;-0.19;69.36
39223;BME280;24936;46.328;11.026;2023-02-12T07:53:57;95861.53;;;0.56;66.90
39223;BME280;24936;46.328;11.026;2023-02-12T07:56:27;95863.84;;;1.49;62.93
39223;BME280;24936;46.328;11.026;2023-02-12T07:58:59;95863.25;;;1.93;61.23
39223;BME280;24936;46.328;11.026;2023-02-12T08:01:30;95876.53;;;2.09;60.06
39223;BME280;24936;46.328;11.026;2023-02-12T08:03:58;95880.25;;;2.02;60.65
39223;BME280;24936;46.328;11.026;2023-02-12T08:06:27;95880.25;;;2.02;60.32
39223;BME280;24936;46.328;11.026;2023-02-12T08:08:57;95880.38;;;1.99;61.09
39223;BME280;24936;46.328;11.026;2023-02-12T08:11:23;95872.78;;;2.18;59.05
39223;BME280;24936;46.328;11.026;2023-02-12T08:13:49;95869.00;;;2.27;59.87
39223;BME280;24936;46.328;11.026;2023-02-12T08:16:18;95867.19;;;2.77;58.27
39223;BME280;24936;46.328;11.026;2023-02-12T08:18:44;95869.41;;;3.10;57.24
39223;BME280;24936;46.328;11.026;2023-02-12T08:21:12;95866.34;;;3.20;56.98
39223;BME280;24936;46.328;11.026;2023-02-12T08:24:41;95879.56;;;3.16;56.83
39223;BME280;24936;46.328;11.026;2023-02-12T08:26:53;95882.41;;;3.10;57.57
39223;BME280;24936;46.328;11.026;2023-02-12T08:29:23;95887.59;;;2.87;58.63
39223;BME280;24936;46.328;11.026;2023-02-12T08:31:54;95892.75;;;2.65;60.24
39223;BME280;24936;46.328;11.026;2023-02-12T08:34:22;95886.31;;;2.52;60.34
39223;BME280;24936;46.328;11.026;2023-02-12T08:36:50;95885.06;;;2.62;58.28
39223;BME280;24936;46.328;11.026;2023-02-12T08:39:17;95878.91;;;2.65;60.21
39223;BME280;24936;46.328;11.026;2023-02-12T08:41:43;95876.59;;;2.57;61.06
39223;BME280;24936;46.328;11.026;2023-02-12T08:44:09;95881.19;;;2.72;59.39
39223;BME280;24936;46.328;11.026;2023-02-12T08:46:36;95881.22;;;2.95;58.13
39223;BME280;24936;46.328;11.026;2023-02-12T08:49:05;95872.81;;;3.12;57.33
39223;BME280;24936;46.328;11.026;2023-02-12T08:51:33;95876.72;;;3.22;57.83
39223;BME280;24936;46.328;11.026;2023-02-12T08:54:02;95878.09;;;3.53;54.93
39223;BME280;24936;46.328;11.026;2023-02-12T08:56:28;95880.47;;;3.80;54.01
39223;BME280;24936;46.328;11.026;2023-02-12T08:58:56;95872.25;;;3.89;55.05
39223;BME280;24936;46.328;11.026;2023-02-12T09:01:23;95866.78;;;4.16;54.01
39223;BME280;24936;46.328;11.026;2023-02-12T09:03:49;95867.22;;;6.12;48.96
39223;BME280;24936;46.328;11.026;2023-02-12T09:06:16;95866.91;;;8.25;40.31
39223;BME280;24936;46.328;11.026;2023-02-12T09:08:42;95853.63;;;10.49;35.87
39223;BME280;24936;46.328;11.026;2023-02-12T09:11:20;95861.16;;;11.06;36.09
39223;BME280;24936;46.328;11.026;2023-02-12T09:13:55;95858.25;;;13.11;33.26
39223;BME280;24936;46.328;11.026;2023-02-12T09:16:22;95861.13;;;14.07;30.43
39223;BME280;24936;46.328;11.026;2023-02-12T09:18:47;95858.72;;;13.05;32.53
39223;BME280;24936;46.328;11.026;2023-02-12T09:21:14;95846.50;;;11.87;35.27
39223;BME280;24936;46.328;11.026;2023-02-12T09:23:41;95841.66;;;12.52;36.99
39223;BME280;24936;46.328;11.026;2023-02-12T09:26:07;95846.03;;;13.98;33.69
39223;BME280;24936;46.328;11.026;2023-02-12T09:28:34;95852.53;;;14.79;31.58
39223;BME280;24936;46.328;11.026;2023-02-12T09:31:13;95854.84;;;15.44;32.03
39223;BME280;24936;46.328;11.026;2023-02-12T09:33:39;95841.78;;;15.82;30.57
39223;BME280;24936;46.328;11.026;2023-02-12T09:36:06;95852.25;;;15.73;30.44
39223;BME280;24936;46.328;11.026;2023-02-12T09:38:31;95848.50;;;16.05;29.77
39223;BME280;24936;46.328;11.026;2023-02-12T09:43:47;95848.78;;;16.22;28.65
39223;BME280;24936;46.328;11.026;2023-02-12T09:46:37;95853.50;;;15.59;31.03
39223;BME280;24936;46.328;11.026;2023-02-12T09:51:41;95832.78;;;16.51;28.50
39223;BME280;24936;46.328;11.026;2023-02-12T09:54:12;95828.06;;;16.45;27.53
39223;BME280;24936;46.328;11.026;2023-02-12T09:56:39;95837.50;;;16.77;28.23
39223;BME280;24936;46.328;11.026;2023-02-12T09:59:07;95818.66;;;18.00;26.65
39223;BME280;24936;46.328;11.026;2023-02-12T10:01:34;95823.44;;;18.15;25.98
39223;BME280;24936;46.328;11.026;2023-02-12T10:04:00;95818.19;;;18.05;24.86
39223;BME280;24936;46.328;11.026;2023-02-12T10:06:40;95817.53;;;17.93;24.20
39223;BME280;24936;46.328;11.026;2023-02-12T10:12:23;95817.78;;;18.18;23.69
39223;BME280;24936;46.328;11.026;2023-02-12T10:15:37;95807.91;;;19.24;23.34
39223;BME280;24936;46.328;11.026;2023-02-12T10:26:23;95818.06;;;17.42;25.48
39223;BME280;24936;46.328;11.026;2023-02-12T10:28:50;95810.41;;;17.76;25.34
39223;BME280;24936;46.328;11.026;2023-02-12T10:31:33;95813.00;;;18.48;24.36
39223;BME280;24936;46.328;11.026;2023-02-12T10:34:13;95797.09;;;17.76;25.06
39223;BME280;24936;46.328;11.026;2023-02-12T10:36:50;95794.25;;;17.95;24.10
39223;BME280;24936;46.328;11.026;2023-02-12T10:39:27;95793.22;;;17.88;26.37
39223;BME280;24936;46.328;11.026;2023-02-12T10:42:00;95787.34;;;17.02;25.42
39223;BME280;24936;46.328;11.026;2023-02-12T10:44:27;95776.84;;;17.47;24.11
39223;BME280;24936;46.328;11.026;2023-02-12T10:46:52;95768.47;;;16.58;25.73
39223;BME280;24936;46.328;11.026;2023-02-12T10:49:19;95767.50;;;17.42;25.21
39223;BME280;24936;46.328;11.026;2023-02-12T10:54:43;95757.09;;;17.67;23.53
39223;BME280;24936;46.328;11.026;2023-02-12T10:57:29;95758.31;;;18.70;23.90
39223;BME280;24936;46.328;11.026;2023-02-12T11:00:22;95748.53;;;19.14;24.53
39223;BME280;24936;46.328;11.026;2023-02-12T11:03:20;95746.28;;;17.51;25.22
39223;BME280;24936;46.328;11.026;2023-02-12T11:05:44;95745.56;;;17.12;26.59
39223;BME280;24936;46.328;11.026;2023-02-12T11:10:53;95741.84;;;17.05;26.55
39223;BME280;24936;46.328;11.026;2023-02-12T11:13:23;95735.44;;;16.60;27.04
39223;BME280;24936;46.328;11.026;2023-02-12T11:15:50;95728.63;;;17.50;26.19
39223;BME280;24936;46.328;11.026;2023-02-12T11:18:28;95723.25;;;18.22;25.33
39223;BME280;24936;46.328;11.026;2023-02-12T11:21:06;95726.63;;;18.32;25.90
39223;BME280;24936;46.328;11.026;2023-02-12T11:23:43;95720.94;;;18.01;25.85
39223;BME280;24936;46.328;11.026;2023-02-12T11:26:25;95714.31;;;18.31;26.15
39223;BME280;24936;46.328;11.026;2023-02-12T11:29:04;95708.91;;;18.49;25.25
39223;BME280;24936;46.328;11.026;2023-02-12T11:31:41;95699.25;;;18.48;24.46
39223;BME280;24936;46.328;11.026;2023-02-12T11:34:16;95701.78;;;18.93;23.05
39223;BME280;24936;46.328;11.026;2023-02-12T11:36:47;95692.72;;;20.20;21.28
39223;BME280;24936;46.328;11.026;2023-02-12T11:39:27;95680.38;;;20.19;22.67
39223;BME280;24936;46.328;11.026;2023-02-12T11:41:58;95676.75;;;20.59;22.34
39223;BME280;24936;46.328;11.026;2023-02-12T11:44:31;95670.00;;;19.08;23.85
39223;BME280;24936;46.328;11.026;2023-02-12T11:47:01;95678.00;;;19.08;25.24
39223;BME280;24936;46.328;11.026;2023-02-12T11:49:33;95665.06;;;19.96;23.44
39223;BME280;24936;46.328;11.026;2023-02-12T11:52:03;95664.84;;;20.14;23.38
39223;BME280;24936;46.328;11.026;2023-02-12T11:54:41;95661.03;;;19.92;22.68
39223;BME280;24936;46.328;11.026;2023-02-12T12:00:17;95648.16;;;19.79;21.74
39223;BME280;24936;46.328;11.026;2023-02-12T12:02:52;95651.53;;;19.48;21.41
39223;BME280;24936;46.328;11.026;2023-02-12T12:05:21;95645.53;;;18.78;21.64
39223;BME280;24936;46.328;11.026;2023-02-12T12:07:52;95634.38;;;18.74;23.38
39223;BME280;24936;46.328;11.026;2023-02-12T12:10:36;95633.31;;;19.10;23.45
39223;BME280;24936;46.328;11.026;2023-02-12T12:13:12;95619.13;;;20.00;21.89
39223;BME280;24936;46.328;11.026;2023-02-12T12:15:43;95630.25;;;20.69;19.64
39223;BME280;24936;46.328;11.026;2023-02-12T12:18:45;95620.03;;;21.74;21.20
39223;BME280;24936;46.328;11.026;2023-02-12T12:24:45;95606.84;;;19.50;20.38
39223;BME280;24936;46.328;11.026;2023-02-12T12:27:23;95605.16;;;19.32;21.99
39223;BME280;24936;46.328;11.026;2023-02-12T12:46:43;95584.28;;;19.44;22.71
39223;BME280;24936;46.328;11.026;2023-02-12T12:52:26;95578.59;;;19.64;21.68
39223;BME280;24936;46.328;11.026;2023-02-12T13:06:25;95555.97;;;19.27;22.06
39223;BME280;24936;46.328;11.026;2023-02-12T13:17:53;95550.28;;;19.30;23.24
39223;BME280;24936;46.328;11.026;2023-02-12T13:20:30;95554.91;;;19.61;21.42
39223;BME280;24936;46.328;11.026;2023-02-12T13:23:13;95545.28;;;20.16;22.14
39223;BME280;24936;46.328;11.026;2023-02-12T13:25:47;95552.13;;;19.29;22.79
39223;BME280;24936;46.328;11.026;2023-02-12T13:28:27;95550.88;;;18.74;22.70
39223;BME280;24936;46.328;11.026;2023-02-12T13:30:54;95548.97;;;19.01;22.38
39223;BME280;24936;46.328;11.026;2023-02-12T13:33:35;95552.56;;;18.91;23.18
39223;BME280;24936;46.328;11.026;2023-02-12T13:36:05;95552.59;;;19.33;24.23
39223;BME280;24936;46.328;11.026;2023-02-12T13:38:36;95544.63;;;19.24;22.07
39223;BME280;24936;46.328;11.026;2023-02-12T13:41:08;95540.38;;;18.64;22.57
39223;BME280;24936;46.328;11.026;2023-02-12T13:52:21;95534.47;;;20.01;22.96
39223;BME280;24936;46.328;11.026;2023-02-12T13:57:40;95530.25;;;19.34;23.48
39223;BME280;24936;46.328;11.026;2023-02-12T14:00:10;95536.56;;;18.67;23.01
39223;BME280;24936;46.328;11.026;2023-02-12T14:02:51;95526.44;;;19.03;24.44
39223;BME280;24936;46.328;11.026;2023-02-12T14:05:21;95534.38;;;18.62;22.72
39223;BME280;24936;46.328;11.026;2023-02-12T14:07:57;95530.63;;;19.22;22.93
39223;BME280;24936;46.328;11.026;2023-02-12T14:13:14;95534.56;;;18.77;23.10
39223;BME280;24936;46.328;11.026;2023-02-12T14:15:44;95533.72;;;18.52;22.50
39223;BME280;24936;46.328;11.026;2023-02-12T14:27:45;95528.28;;;19.28;22.85
39223;BME280;24936;46.328;11.026;2023-02-12T14:35:33;95537.75;;;18.21;23.97
39223;BME280;24936;46.328;11.026;2023-02-12T14:40:46;95526.91;;;18.06;23.68
39223;BME280;24936;46.328;11.026;2023-02-12T14:45:54;95542.16;;;17.43;25.32
39223;BME280;24936;46.328;11.026;2023-02-12T14:49:00;95540.88;;;16.48;25.70
39223;BME280;24936;46.328;11.026;2023-02-12T14:51:35;95546.53;;;16.54;26.61
39223;BME280;24936;46.328;11.026;2023-02-12T14:54:13;95548.47;;;16.33;25.53
39223;BME280;24936;46.328;11.026;2023-02-12T14:56:51;95539.53;;;16.34;26.73
39223;BME280;24936;46.328;11.026;2023-02-12T14:59:22;95546.50;;;15.89;27.34
39223;BME280;24936;46.328;11.026;2023-02-12T15:01:49;95555.09;;;16.01;25.56
39223;BME280;24936;46.328;11.026;2023-02-12T15:04:19;95554.84;;;15.95;27.18
39223;BME280;24936;46.328;11.026;2023-02-12T15:06:51;95560.41;;;15.54;27.26
39223;BME280;24936;46.328;11.026;2023-02-12T15:09:23;95561.31;;;15.25;27.36
39223;BME280;24936;46.328;11.026;2023-02-12T15:12:05;95566.50;;;14.87;27.39
39223;BME280;24936;46.328;11.026;2023-02-12T15:14:35;95567.63;;;14.94;28.04
39223;BME280;24936;46.328;11.026;2023-02-12T15:17:10;95568.38;;;14.26;29.43
39223;BME280;24936;46.328;11.026;2023-02-12T15:19:54;95573.78;;;13.10;30.33